Time;durP1;ratioP1;P1;durP2;ratioP2;P2;SDS_P1;SDS_P2;PMS_P1;PMS_P2;Temp;Humidity;BMP_temperature;BMP_pressure;BME280_temperature;BME280_humidity;BME280_pressure;Samples;Min_cycle;Max_cycle;Signal;HPM_P1;HPM_P2
2023/04/21 00:02:18;;;;;;;12.82;11.40;;;;;;;7.89;88.56;101605.53;4997866;28;20332;-77
2023/04/21 00:04:44;;;;;;;14.80;10.88;;;;;;;7.87;89.04;101583.81;4996388;28;20049;-77
2023/04/21 00:07:10;;;;;;;13.45;11.30;;;;;;;7.86;88.94;101580.38;4996743;28;20034;-77
2023/04/21 00:09:36;;;;;;;12.55;10.85;;;;;;;7.87;89.06;101576.84;4999042;28;20257;-77
2023/04/21 00:12:01;;;;;;;14.07;11.15;;;;;;;7.87;89.18;101584.69;4999006;28;20042;-77
2023/04/21 00:14:26;;;;;;;13.32;10.88;;;;;;;7.92;89.00;101594.19;4999259;28;20042;-77
2023/04/21 00:16:52;;;;;;;12.45;10.85;;;;;;;7.93;88.92;101588.06;4997450;28;20038;-77
2023/04/21 00:19:18;;;;;;;15.80;11.38;;;;;;;7.92;88.96;101600.25;4998964;28;20038;-77
2023/04/21 00:21:44;;;;;;;16.00;11.48;;;;;;;7.91;89.17;101601.13;4996516;28;20042;-77
2023/04/21 00:24:10;;;;;;;16.20;12.18;;;;;;;7.87;89.89;101602.94;4994395;28;20043;-77
2023/04/21 00:26:35;;;;;;;16.35;11.98;;;;;;;7.84;90.45;101608.22;4997916;28;20093;-77
2023/04/21 00:29:01;;;;;;;16.23;11.32;;;;;;;7.82;90.88;101607.41;4997820;28;20339;-77
2023/04/21 00:31:27;;;;;;;15.02;11.57;;;;;;;7.76;91.80;101607.47;4994785;28;20050;-77
2023/04/21 00:33:53;;;;;;;14.90;11.65;;;;;;;7.72;92.45;101595.38;4998007;28;20030;-76
2023/04/21 00:36:18;;;;;;;14.25;11.55;;;;;;;7.71;92.46;101601.47;4997649;28;20053;-76
2023/04/21 00:38:44;;;;;;;13.55;11.00;;;;;;;7.70;92.85;101597.16;4998011;28;20049;-76
2023/04/21 00:41:09;;;;;;;16.25;11.85;;;;;;;7.69;93.41;101595.44;4997650;28;20042;-76
2023/04/21 00:43:35;;;;;;;18.52;12.35;;;;;;;7.68;93.41;101573.72;4996103;28;20046;-76
2023/04/21 00:46:00;;;;;;;17.02;12.10;;;;;;;7.68;93.70;101575.47;4980944;28;20045;-77
2023/04/21 00:48:25;;;;;;;17.30;12.68;;;;;;;7.66;93.81;101559.84;4996118;28;20048;-77
2023/04/21 00:50:51;;;;;;;15.52;12.05;;;;;;;7.65;94.17;101560.72;4993759;28;20376;-77
2023/04/21 00:53:17;;;;;;;16.42;12.35;;;;;;;7.66;93.93;101559.84;4998535;28;20345;-77
2023/04/21 00:55:44;;;;;;;16.13;12.25;;;;;;;7.68;94.19;101552.88;4993717;28;20077;-76
2023/04/21 00:58:10;;;;;;;17.83;12.77;;;;;;;7.69;93.88;101549.38;4995950;28;20280;-76
2023/04/21 01:00:37;;;;;;;16.77;12.43;;;;;;;7.68;93.92;101550.25;4994483;28;20157;-76
2023/04/21 01:03:04;;;;;;;18.27;12.75;;;;;;;7.67;94.21;101545.06;4998075;28;20225;-77
2023/04/21 01:05:30;;;;;;;15.98;12.32;;;;;;;7.66;94.40;101544.22;4997689;28;20266;-77
2023/04/21 01:07:56;;;;;;;16.95;12.40;;;;;;;7.67;94.36;101540.69;4997439;28;20099;-77
2023/04/21 01:10:21;;;;;;;17.92;12.82;;;;;;;7.68;94.77;101552.00;4995102;28;20241;-77
2023/04/21 01:12:47;;;;;;;20.38;12.80;;;;;;;7.67;94.56;101545.91;4997590;28;20042;-77
2023/04/21 01:15:17;;;;;;;18.85;12.30;;;;;;;7.69;94.43;101552.00;4998119;28;20037;-76
2023/04/21 01:17:42;;;;;;;17.85;12.85;;;;;;;7.69;94.59;101548.50;4995915;28;20045;-75
2023/04/21 01:20:12;;;;;;;19.25;13.02;;;;;;;7.68;94.91;101550.25;4997034;28;20045;-77
2023/04/21 01:22:38;;;;;;;20.20;12.45;;;;;;;7.68;94.95;101552.00;4997134;28;20049;-77
2023/04/21 01:25:04;;;;;;;18.90;13.18;;;;;;;7.66;95.39;101549.44;4995432;28;20042;-77
2023/04/21 01:27:30;;;;;;;17.15;12.30;;;;;;;7.67;95.52;101550.28;4996940;28;20365;-77
2023/04/21 01:29:56;;;;;;;17.58;13.35;;;;;;;7.66;95.78;101546.81;4996047;28;20084;-77
2023/04/21 01:32:24;;;;;;;20.42;14.10;;;;;;;7.66;95.96;101551.19;4992525;28;20034;-77
2023/04/21 01:34:50;;;;;;;16.10;13.15;;;;;;;7.67;96.22;101550.28;4997211;28;20322;-77
2023/04/21 01:37:18;;;;;;;20.38;13.27;;;;;;;7.66;96.46;101541.59;4995484;28;20112;-77
2023/04/21 01:39:47;;;;;;;18.65;12.95;;;;;;;7.67;96.16;101545.06;4997048;28;20034;-77
2023/04/21 01:42:12;;;;;;;22.38;13.55;;;;;;;7.65;96.68;101544.22;4995847;28;20038;-76
2023/04/21 01:44:38;;;;;;;20.17;13.50;;;;;;;7.66;96.58;101532.94;4996394;28;20229;-77
2023/04/21 01:47:06;;;;;;;17.50;12.95;;;;;;;7.65;96.70;101529.44;4993570;28;20038;-77
2023/04/21 01:49:31;;;;;;;18.55;13.23;;;;;;;7.64;96.95;101526.84;4995108;28;20057;-77
2023/04/21 01:51:57;;;;;;;22.48;14.68;;;;;;;7.63;96.95;101532.97;4997045;28;20034;-77
2023/04/21 01:54:22;;;;;;;20.92;13.38;;;;;;;7.61;97.08;101519.97;4997456;28;20258;-77
2023/04/21 01:56:48;;;;;;;20.42;14.50;;;;;;;7.59;97.25;101518.28;4995970;28;20042;-77
2023/04/21 01:59:13;;;;;;;23.05;14.25;;;;;;;7.56;97.42;101513.97;4997300;28;20065;-77
2023/04/21 02:01:38;;;;;;;23.02;15.35;;;;;;;7.54;97.54;101513.13;4994526;28;20061;-77
2023/04/21 02:04:04;;;;;;;22.25;14.68;;;;;;;7.53;97.66;101506.22;4994477;28;20046;-77
2023/04/21 02:06:32;;;;;;;21.02;14.55;;;;;;;7.52;97.88;101499.28;4997020;28;20057;-77
2023/04/21 02:08:57;;;;;;;22.90;14.47;;;;;;;7.53;97.69;101495.78;4996692;28;20053;-76
2023/04/21 02:11:24;;;;;;;25.02;14.75;;;;;;;7.53;97.87;101492.31;4997286;28;20256;-76
2023/04/21 02:13:51;;;;;;;24.88;15.10;;;;;;;7.50;97.92;101499.28;4994304;28;20044;-76
2023/04/21 02:16:17;;;;;;;26.77;14.27;;;;;;;7.50;98.17;101495.84;4997318;28;20042;-76
2023/04/21 02:18:43;;;;;;;24.35;14.95;;;;;;;7.49;98.00;101499.31;4996089;28;20096;-77
2023/04/21 02:21:08;;;;;;;21.05;14.48;;;;;;;7.47;98.50;101493.28;4994616;28;20062;-76
2023/04/21 02:23:34;;;;;;;21.05;14.43;;;;;;;7.47;98.40;101498.50;4994981;28;20042;-76
2023/04/21 02:25:59;;;;;;;21.60;15.18;;;;;;;7.49;98.52;101496.72;4996570;28;20042;-76
2023/04/21 02:28:25;;;;;;;21.55;13.88;;;;;;;7.46;98.57;101494.19;4995074;28;20065;-76
2023/04/21 02:30:50;;;;;;;22.95;14.55;;;;;;;7.45;98.70;101495.91;4994311;28;20065;-76
2023/04/21 02:33:15;;;;;;;21.08;14.45;;;;;;;7.46;98.67;101491.56;4996571;28;20053;-76
2023/04/21 02:35:41;;;;;;;20.00;14.60;;;;;;;7.46;98.80;101491.56;4994884;28;20042;-76
2023/04/21 02:38:07;;;;;;;24.42;15.13;;;;;;;7.47;98.84;101482.84;4997138;28;20073;-76
2023/04/21 02:40:33;;;;;;;21.95;15.13;;;;;;;7.49;98.27;101484.56;4995848;28;20097;-76
2023/04/21 02:42:59;;;;;;;22.98;14.35;;;;;;;7.49;98.45;101481.94;4999248;28;20265;-77
2023/04/21 02:45:24;;;;;;;22.73;14.50;;;;;;;7.49;98.40;101474.13;4998976;28;20042;-76
2023/04/21 02:47:49;;;;;;;22.67;14.65;;;;;;;7.50;98.55;101478.44;4999598;28;20042;-76
2023/04/21 02:50:15;;;;;;;23.30;15.20;;;;;;;7.50;98.51;101481.06;4997550;28;20038;-76
2023/04/21 02:52:40;;;;;;;24.23;14.88;;;;;;;7.50;98.54;101473.22;5000028;28;20037;-76
2023/04/21 02:55:06;;;;;;;20.33;14.02;;;;;;;7.53;98.65;101487.09;5001134;28;20031;-77
2023/04/21 02:57:31;;;;;;;21.80;15.02;;;;;;;7.54;98.39;101478.41;5000670;28;20330;-76
2023/04/21 02:59:57;;;;;;;19.38;12.75;;;;;;;7.54;98.18;101462.75;5000341;28;20046;-76
2023/04/21 03:02:22;;;;;;;16.73;12.90;;;;;;;7.55;98.19;101469.66;4998941;28;20277;-76
2023/04/21 03:04:48;;;;;;;19.00;12.95;;;;;;;7.57;98.24;101460.09;4999202;28;20333;-76
2023/04/21 03:07:13;;;;;;;15.65;12.35;;;;;;;7.61;98.34;101470.44;5000259;28;20369;-76
2023/04/21 03:09:39;;;;;;;16.38;11.90;;;;;;;7.65;98.09;101474.69;4999744;28;20049;-76
2023/04/21 03:12:05;;;;;;;13.85;11.18;;;;;;;7.71;97.93;101475.47;5000318;28;20030;-76
2023/04/21 03:14:30;;;;;;;16.67;11.82;;;;;;;7.75;97.66;101475.41;5000074;28;20049;-76
2023/04/21 03:16:56;;;;;;;14.23;11.32;;;;;;;7.79;97.03;101473.59;4999674;28;20042;-76
2023/04/21 03:19:21;;;;;;;14.82;10.80;;;;;;;7.83;96.78;101473.50;4998490;28;20384;-76
2023/04/21 03:21:46;;;;;;;16.95;12.40;;;;;;;7.86;96.43;101467.38;4999779;28;20281;-76
2023/04/21 03:24:12;;;;;;;18.10;12.70;;;;;;;7.86;95.88;101457.78;5000094;28;20092;-76
2023/04/21 03:26:39;;;;;;;20.90;14.23;;;;;;;7.90;95.72;101449.91;4996110;28;20345;-76
2023/04/21 03:29:04;;;;;;;20.05;13.75;;;;;;;7.89;96.08;101449.03;4999396;28;20049;-76
2023/04/21 03:31:30;;;;;;;23.02;15.27;;;;;;;7.91;95.52;101446.41;4998659;28;20050;-76
2023/04/21 03:33:56;;;;;;;22.00;15.73;;;;;;;7.88;95.87;101448.19;4998128;28;20191;-76
2023/04/21 03:36:21;;;;;;;24.00;15.93;;;;;;;7.84;96.13;101446.53;4997216;28;20071;-76
2023/04/21 03:38:46;;;;;;;22.05;15.02;;;;;;;7.81;96.42;101443.13;4997952;28;20110;-76
2023/04/21 03:41:12;;;;;;;26.73;16.40;;;;;;;7.79;96.87;101440.56;4999913;28;20038;-76
2023/04/21 03:43:37;;;;;;;21.90;15.85;;;;;;;7.80;97.04;101429.22;4998346;28;20038;-76
2023/04/21 03:46:02;;;;;;;23.17;16.15;;;;;;;7.79;97.17;101424.91;4998503;28;20041;-76
2023/04/21 03:48:28;;;;;;;32.35;17.00;;;;;;;7.80;97.40;101430.97;4998619;28;20345;-76
2023/04/21 03:50:54;;;;;;;25.45;16.65;;;;;;;7.80;97.28;101423.16;4999030;28;20245;-76
2023/04/21 03:53:19;;;;;;;26.38;16.70;;;;;;;7.78;97.42;101423.19;4998206;28;20102;-76
2023/04/21 03:55:47;;;;;;;24.48;16.35;;;;;;;7.79;97.68;101427.50;4998428;28;20105;-76
2023/04/21 03:58:14;;;;;;;29.53;18.43;;;;;;;7.75;98.08;101431.06;4996954;28;20034;-76
2023/04/21 04:00:40;;;;;;;28.02;19.17;;;;;;;7.74;98.16;101420.69;4996500;28;20061;-76
2023/04/21 04:03:06;;;;;;;30.27;17.17;;;;;;;7.74;98.34;101413.69;4998716;28;20113;-76
2023/04/21 04:05:31;;;;;;;28.70;17.02;;;;;;;7.75;98.17;101415.44;4996743;28;20058;-76
2023/04/21 04:07:57;;;;;;;27.85;17.25;;;;;;;7.78;98.25;101414.50;4996618;28;20042;-76
2023/04/21 04:10:22;;;;;;;26.85;17.40;;;;;;;7.80;98.03;101407.50;4996576;28;20050;-76
2023/04/21 04:12:48;;;;;;;27.52;17.40;;;;;;;7.81;97.59;101415.31;4995920;28;20404;-76
2023/04/21 04:15:14;;;;;;;27.52;18.05;;;;;;;7.78;97.69;101415.34;4997342;28;20118;-76
2023/04/21 04:17:39;;;;;;;31.83;18.63;;;;;;;7.72;97.85;101410.28;4998455;28;20084;-76
2023/04/21 04:20:07;;;;;;;27.55;17.92;;;;;;;7.70;98.25;101414.66;4998615;28;20038;-76
2023/04/21 04:22:32;;;;;;;25.70;17.10;;;;;;;7.68;98.34;101417.28;4997990;28;20057;-76
2023/04/21 04:25:00;;;;;;;26.55;17.50;;;;;;;7.68;98.53;101416.44;4997871;28;20038;-76
2023/04/21 04:27:26;;;;;;;25.52;17.35;;;;;;;7.69;98.52;101402.50;4997672;28;20034;-77
2023/04/21 04:29:51;;;;;;;31.45;19.27;;;;;;;7.70;98.42;101409.44;4997645;28;20172;-77
2023/04/21 04:32:17;;;;;;;28.58;17.65;;;;;;;7.73;98.36;101409.41;4996359;28;20057;-77
2023/04/21 04:34:43;;;;;;;26.33;17.83;;;;;;;7.75;98.31;101411.94;4995381;28;20033;-75
2023/04/21 04:37:09;;;;;;;28.70;18.27;;;;;;;7.76;98.66;101419.75;4997096;28;20329;-76
2023/04/21 04:39:35;;;;;;;28.77;17.90;;;;;;;7.76;98.28;101413.69;4998029;28;20102;-76
2023/04/21 04:42:02;;;;;;;29.30;17.75;;;;;;;7.77;98.38;101412.81;4998180;28;20049;-76
2023/04/21 04:44:28;;;;;;;29.52;19.15;;;;;;;7.77;98.48;101412.81;4997102;28;20042;-76
2023/04/21 04:46:53;;;;;;;29.23;18.30;;;;;;;7.77;98.38;101408.44;4996563;28;20077;-76
2023/04/21 04:49:19;;;;;;;27.73;18.20;;;;;;;7.79;98.44;101419.69;4998826;28;20049;-76
2023/04/21 04:51:44;;;;;;;35.20;19.80;;;;;;;7.80;98.38;101417.94;4998084;28;20042;-76
2023/04/21 04:54:10;;;;;;;29.63;19.35;;;;;;;7.80;98.31;101415.31;4998439;28;20038;-76
2023/04/21 04:56:36;;;;;;;32.65;20.92;;;;;;;7.80;98.68;101418.78;4996969;28;20057;-76
2023/04/21 04:59:02;;;;;;;28.08;18.33;;;;;;;7.83;98.64;101407.44;4997614;28;20375;-76
2023/04/21 05:01:29;;;;;;;28.58;19.60;;;;;;;7.84;98.49;101420.47;4989579;28;20046;-76
2023/04/21 05:03:55;;;;;;;28.55;18.42;;;;;;;7.86;98.42;101429.13;4983777;28;20070;-76
2023/04/21 05:06:21;;;;;;;33.92;21.20;;;;;;;7.86;98.60;101429.13;4993287;28;20068;-76
2023/04/21 05:08:47;;;;;;;30.63;20.20;;;;;;;7.85;98.72;101422.16;4989965;28;20141;-76
2023/04/21 05:11:12;;;;;;;31.95;20.38;;;;;;;7.84;98.38;101427.41;4994192;28;20294;-76
2023/04/21 05:13:38;;;;;;;30.92;19.52;;;;;;;7.84;98.82;101428.28;4993095;28;20105;-76
2023/04/21 05:16:04;;;;;;;35.65;21.00;;;;;;;7.83;99.04;101426.56;4994479;28;20356;-76
2023/04/21 05:18:29;;;;;;;33.15;21.35;;;;;;;7.83;98.87;101418.72;4995515;28;20046;-77
2023/04/21 05:20:55;;;;;;;35.17;20.80;;;;;;;7.83;99.11;101423.09;4989464;28;20045;-76
2023/04/21 05:23:21;;;;;;;37.35;22.20;;;;;;;7.81;99.77;101414.44;4992651;28;20030;-76
2023/04/21 05:25:46;;;;;;;30.92;21.30;;;;;;;7.80;100.00;101417.94;4993999;28;20389;-77
2023/04/21 05:28:12;;;;;;;34.85;21.85;;;;;;;7.79;100.00;101424.06;4986524;28;20030;-76
2023/04/21 05:30:37;;;;;;;37.25;22.95;;;;;;;7.78;100.00;101422.31;4989751;28;20050;-76
2023/04/21 05:33:03;;;;;;;37.70;22.77;;;;;;;7.78;100.00;101419.72;4995034;28;20042;-76
2023/04/21 05:35:32;;;;;;;37.28;22.70;;;;;;;7.78;100.00;101423.19;4995837;28;20046;-77
2023/04/21 05:37:57;;;;;;;40.22;22.48;;;;;;;7.78;100.00;101427.53;4998716;28;20089;-77
2023/04/21 05:40:22;;;;;;;39.80;23.10;;;;;;;7.77;100.00;101436.28;4997719;28;20038;-76
2023/04/21 05:42:48;;;;;;;39.42;21.65;;;;;;;7.77;100.00;101431.06;4992754;28;20334;-76
2023/04/21 05:45:13;;;;;;;39.15;23.30;;;;;;;7.77;100.00;101439.72;4985700;28;20101;-76
2023/04/21 05:47:39;;;;;;;38.65;23.83;;;;;;;7.76;100.00;101432.78;4990709;28;20038;-76
2023/04/21 05:50:06;;;;;;;41.60;24.27;;;;;;;7.75;100.00;101438.91;4995539;28;20064;-76
2023/04/21 05:52:31;;;;;;;36.65;23.58;;;;;;;7.75;100.00;101438.03;4994457;28;20616;-76
2023/04/21 05:54:58;;;;;;;41.35;23.98;;;;;;;7.76;100.00;101438.00;4989949;28;20031;-76
2023/04/21 05:57:24;;;;;;;37.10;23.92;;;;;;;7.77;100.00;101438.88;4986611;28;20038;-76
2023/04/21 05:59:49;;;;;;;40.47;24.13;;;;;;;7.77;100.00;101444.94;4990937;28;20268;-76
2023/04/21 06:02:14;;;;;;;40.97;25.30;;;;;;;7.77;100.00;101444.94;4993574;28;20054;-76
2023/04/21 06:04:40;;;;;;;39.00;24.42;;;;;;;7.80;100.00;101451.84;4990202;28;20472;-76
2023/04/21 06:07:12;;;;;;;39.95;25.42;;;;;;;7.80;100.00;101450.06;4990799;28;20065;-76
2023/04/21 06:09:38;;;;;;;39.53;24.95;;;;;;;7.82;100.00;101450.03;4989523;28;20041;-77
2023/04/21 06:12:03;;;;;;;41.22;25.40;;;;;;;7.83;100.00;101447.41;4991417;28;20045;-76
2023/04/21 06:14:29;;;;;;;44.50;25.70;;;;;;;7.86;100.00;101446.50;4989923;28;20070;-76
2023/04/21 06:16:54;;;;;;;40.35;25.63;;;;;;;7.86;100.00;101447.38;4994412;28;20050;-76
2023/04/21 06:19:20;;;;;;;41.05;25.38;;;;;;;7.86;100.00;101444.75;4996419;28;20386;-76
2023/04/21 06:21:45;;;;;;;46.08;27.10;;;;;;;7.88;100.00;101442.97;4996947;28;20061;-77
2023/04/21 06:24:10;;;;;;;43.78;26.10;;;;;;;7.90;100.00;101452.53;4995921;28;20068;-77
2023/04/21 06:26:36;;;;;;;42.83;25.95;;;;;;;7.92;100.00;101449.00;4997062;28;20039;-76
2023/04/21 06:29:01;;;;;;;43.47;26.25;;;;;;;7.94;100.00;101447.22;4996321;28;20030;-76
2023/04/21 06:31:27;;;;;;;42.92;26.80;;;;;;;7.94;100.00;101448.97;4995856;28;20425;-76
2023/04/21 06:33:52;;;;;;;46.40;26.90;;;;;;;7.96;100.00;101449.78;4996328;28;20034;-76
2023/04/21 06:36:17;;;;;;;49.22;27.08;;;;;;;7.98;100.00;101450.63;4994242;28;20101;-76
2023/04/21 06:38:43;;;;;;;46.50;28.08;;;;;;;7.98;100.00;101448.00;4992815;28;20088;-76
2023/04/21 06:41:09;;;;;;;47.50;27.75;;;;;;;7.99;100.00;101439.31;4997617;28;20033;-76
2023/04/21 06:43:34;;;;;;;50.38;29.58;;;;;;;8.00;100.00;101446.22;4959990;28;20026;-76
2023/04/21 06:46:00;;;;;;;46.20;28.73;;;;;;;8.01;100.00;101442.75;4998448;28;20049;-76
2023/04/21 06:48:26;;;;;;;43.85;28.17;;;;;;;8.02;100.00;101450.53;4995844;28;20029;-76
2023/04/21 06:50:52;;;;;;;42.38;26.75;;;;;;;8.06;100.00;101441.75;4995584;28;20038;-76
2023/04/21 06:53:17;;;;;;;49.08;29.25;;;;;;;8.08;100.00;101442.56;4998628;28;20042;-76
2023/04/21 06:55:43;;;;;;;46.80;28.48;;;;;;;8.12;100.00;101442.53;4991859;28;20046;-76
2023/04/21 06:58:08;;;;;;;46.90;28.48;;;;;;;8.14;100.00;101444.19;4997460;28;20045;-76
2023/04/21 07:00:34;;;;;;;45.20;28.05;;;;;;;8.16;100.00;101438.94;4996289;28;20034;-76
2023/04/21 07:02:59;;;;;;;47.13;29.85;;;;;;;8.16;100.00;101428.50;4997289;28;20389;-76
2023/04/21 07:05:25;;;;;;;47.30;30.05;;;;;;;8.17;100.00;101441.53;4999132;28;20373;-77
2023/04/21 07:07:50;;;;;;;50.17;29.70;;;;;;;8.20;100.00;101437.97;4996751;28;20042;-77
2023/04/21 07:10:18;;;;;;;48.50;29.48;;;;;;;8.19;100.00;101436.28;4990019;28;20098;-76
2023/04/21 07:12:44;;;;;;;50.03;30.08;;;;;;;8.21;100.00;101434.50;4993560;28;20417;-76
2023/04/21 07:15:11;;;;;;;48.00;29.75;;;;;;;8.20;100.00;101437.97;4997519;28;20038;-77
2023/04/21 07:17:36;;;;;;;51.78;29.95;;;;;;;8.21;100.00;101435.34;4995143;28;20067;-75
2023/04/21 07:20:01;;;;;;;46.42;28.77;;;;;;;8.23;100.00;101437.94;4990209;28;20364;-75
2023/04/21 07:22:27;;;;;;;47.88;29.20;;;;;;;8.23;100.00;101433.56;4983204;28;20058;-76
2023/04/21 07:24:52;;;;;;;50.95;30.63;;;;;;;8.25;100.00;101433.53;4996038;28;20049;-76
2023/04/21 07:27:18;;;;;;;52.78;29.63;;;;;;;8.27;100.00;101431.75;4997309;28;20050;-76
2023/04/21 07:29:43;;;;;;;51.08;30.30;;;;;;;8.31;100.00;101437.75;4994884;28;20030;-76
2023/04/21 07:32:09;;;;;;;52.60;31.08;;;;;;;8.31;100.00;101432.53;4996259;28;20285;-76
2023/04/21 07:34:34;;;;;;;49.33;29.70;;;;;;;8.34;100.00;101435.94;4995888;28;20038;-76
2023/04/21 07:37:00;;;;;;;51.80;31.63;;;;;;;8.36;100.00;101430.69;4994804;28;20065;-77
2023/04/21 07:39:25;;;;;;;50.50;31.13;;;;;;;8.41;100.00;101437.53;4994427;28;20272;-76
2023/04/21 07:41:51;;;;;;;47.25;30.95;;;;;;;8.46;100.00;101434.84;4994497;28;20045;-76
2023/04/21 07:44:16;;;;;;;50.55;32.42;;;;;;;8.50;100.00;101444.34;4992714;28;20038;-76
2023/04/21 07:46:41;;;;;;;51.78;32.83;;;;;;;8.55;100.00;101446.81;4993543;28;20057;-77
2023/04/21 07:49:07;;;;;;;54.42;32.30;;;;;;;8.60;100.00;101444.97;4993722;28;20038;-77
2023/04/21 07:51:32;;;;;;;53.70;32.58;;;;;;;8.63;100.00;101437.06;4996936;28;20053;-76
2023/04/21 07:53:58;;;;;;;51.65;32.15;;;;;;;8.66;100.00;101439.63;4992523;28;20053;-77
2023/04/21 07:56:24;;;;;;;52.80;32.47;;;;;;;8.71;100.00;101447.34;4996082;28;20046;-77
2023/04/21 07:58:49;;;;;;;50.85;31.40;;;;;;;8.76;100.00;101448.09;4992450;28;20046;-77
2023/04/21 08:01:15;;;;;;;50.00;31.23;;;;;;;8.79;100.00;101450.66;4994006;28;20631;-77
2023/04/21 08:03:40;;;;;;;49.83;33.08;;;;;;;8.84;100.00;101439.19;4996624;28;20072;-77
2023/04/21 08:06:06;;;;;;;54.53;33.08;;;;;;;8.90;100.00;101437.34;4990123;28;20050;-77
2023/04/21 08:08:31;;;;;;;47.97;31.35;;;;;;;8.96;100.00;101442.41;4994978;28;20052;-77
2023/04/21 08:10:57;;;;;;;57.63;33.42;;;;;;;9.00;100.00;101441.41;4980034;28;20064;-76
2023/04/21 08:13:24;;;;;;;50.00;31.75;;;;;;;9.03;99.78;101434.38;4993815;28;20044;-77
2023/04/21 08:15:53;;;;;;;50.67;31.95;;;;;;;9.07;98.92;101434.28;4996094;28;20069;-77
2023/04/21 08:18:18;;;;;;;52.58;32.28;;;;;;;9.11;98.80;101434.16;4998467;28;20058;-76
2023/04/21 08:20:46;;;;;;;52.03;33.20;;;;;;;9.17;98.75;101439.25;4998484;28;20217;-76
2023/04/21 08:23:12;;;;;;;52.67;33.67;;;;;;;9.27;99.25;101428.56;4996977;28;20304;-76
2023/04/21 08:25:38;;;;;;;54.42;33.22;;;;;;;9.33;98.91;101431.88;4996752;28;20033;-76
2023/04/21 08:28:03;;;;;;;48.35;31.27;;;;;;;9.40;97.61;101435.19;4997530;28;20026;-76
2023/04/21 08:30:29;;;;;;;47.47;33.17;;;;;;;9.41;96.47;101432.53;4997872;28;20449;-76
2023/04/21 08:32:54;;;;;;;52.58;33.10;;;;;;;9.46;96.40;101434.16;4997139;28;20042;-76
2023/04/21 08:35:20;;;;;;;46.88;32.17;;;;;;;9.47;96.08;101434.13;4998234;28;20030;-76
2023/04/21 08:37:45;;;;;;;49.38;33.38;;;;;;;9.52;96.34;101434.88;4995870;28;20057;-76
2023/04/21 08:40:11;;;;;;;46.83;31.52;;;;;;;9.58;96.16;101431.22;4997117;28;20057;-76
2023/04/21 08:42:37;;;;;;;46.58;31.25;;;;;;;9.58;93.93;101433.84;4991329;28;20054;-76
2023/04/21 08:45:04;;;;;;;44.25;30.48;;;;;;;9.60;93.56;101432.03;4995325;28;20038;-76
2023/04/21 08:47:31;;;;;;;41.40;29.85;;;;;;;9.66;93.63;101428.38;4993301;28;20241;-76
2023/04/21 08:49:58;;;;;;;44.85;30.48;;;;;;;9.71;93.28;101426.50;4992048;28;20383;-76
2023/04/21 08:52:24;;;;;;;46.83;32.20;;;;;;;9.76;93.02;101430.72;4993478;28;20066;-76
2023/04/21 08:54:52;;;;;;;40.45;29.55;;;;;;;9.79;92.23;101425.41;4994665;28;20042;-76
2023/04/21 08:57:18;;;;;;;44.95;30.42;;;;;;;9.82;92.24;101418.38;4992024;28;20084;-76
2023/04/21 08:59:44;;;;;;;41.10;30.17;;;;;;;9.84;92.41;101421.78;4991478;28;20109;-76
2023/04/21 09:02:14;;;;;;;41.55;29.30;;;;;;;9.87;91.82;101412.09;4991342;28;20031;-76
2023/04/21 09:04:45;;;;;;;39.60;28.20;;;;;;;9.95;91.84;101422.34;4988799;28;20050;-76
2023/04/21 09:07:11;;;;;;;40.95;27.85;;;;;;;9.99;90.53;101419.59;4992367;28;20153;-76
2023/04/21 09:10:06;;;;;;;39.78;28.60;;;;;;;10.08;90.93;101420.25;4993458;28;20065;-76
2023/04/21 09:12:32;;;;;;;42.35;28.05;;;;;;;10.11;90.75;101418.38;4978728;28;20371;-77
2023/04/21 09:14:57;;;;;;;40.70;28.80;;;;;;;10.14;89.92;101420.06;4996311;28;20058;-76
2023/04/21 09:17:35;;;;;;;39.42;28.33;;;;;;;10.18;90.46;101424.28;4993503;28;20329;-77
2023/04/21 09:20:17;;;;;;;38.25;27.50;;;;;;;10.25;91.25;101419.75;4992030;28;20113;-76
2023/04/21 09:22:43;;;;;;;34.67;25.10;;;;;;;10.31;90.99;101411.72;4993317;28;20034;-76
2023/04/21 09:25:09;;;;;;;30.20;22.70;;;;;;;10.38;89.69;101423.72;4993801;28;20038;-77
2023/04/21 09:27:35;;;;;;;29.50;22.17;;;;;;;10.46;87.45;101418.25;4994875;28;20064;-76
2023/04/21 09:30:03;;;;;;;27.73;21.23;;;;;;;10.48;86.64;101421.69;4993889;28;20037;-77
2023/04/21 09:32:28;;;;;;;28.88;21.63;;;;;;;10.50;86.76;101423.34;4990449;28;20046;-76
2023/04/21 09:34:58;;;;;;;26.48;21.30;;;;;;;10.52;86.80;101418.94;4990530;28;20109;-77
2023/04/21 09:37:24;;;;;;;29.17;21.88;;;;;;;10.57;86.32;101426.66;4979703;28;20110;-76
2023/04/21 09:39:50;;;;;;;29.00;20.85;;;;;;;10.63;87.17;101417.75;4992244;28;20042;-77
2023/04/21 09:42:15;;;;;;;29.90;21.60;;;;;;;10.65;85.68;101418.53;4990536;28;20030;-77
2023/04/21 09:44:40;;;;;;;29.40;21.17;;;;;;;10.67;84.91;101416.72;4993457;28;20325;-76
2023/04/21 09:47:10;;;;;;;27.98;21.55;;;;;;;10.67;85.26;101404.47;4994896;28;20046;-76
2023/04/21 09:49:35;;;;;;;29.50;23.00;;;;;;;10.69;86.25;101404.44;4993510;28;20042;-77
2023/04/21 09:52:02;;;;;;;30.45;22.67;;;;;;;10.69;86.78;101409.69;4993849;28;20038;-76
2023/04/21 09:54:32;;;;;;;26.75;21.73;;;;;;;10.71;87.03;101408.75;4994680;28;20034;-77
2023/04/21 09:57:00;;;;;;;27.08;21.15;;;;;;;10.73;87.44;101404.31;4994613;28;20038;-76
2023/04/21 09:59:34;;;;;;;29.13;21.60;;;;;;;10.79;87.05;101410.22;4995762;28;20057;-77
2023/04/21 10:02:03;;;;;;;27.92;20.75;;;;;;;10.83;86.84;101402.22;4994666;28;20117;-76
2023/04/21 10:04:30;;;;;;;27.83;20.83;;;;;;;10.86;85.17;101403.88;4995776;28;20065;-77
2023/04/21 10:06:56;;;;;;;22.25;18.70;;;;;;;10.87;85.04;101408.22;4995953;28;20038;-77
2023/04/21 10:09:24;;;;;;;26.35;18.90;;;;;;;10.91;84.52;101410.72;4994671;28;20204;-76
2023/04/21 10:11:51;;;;;;;24.60;19.00;;;;;;;10.97;84.43;101400.91;4990278;28;20108;-76
2023/04/21 10:14:16;;;;;;;24.30;18.98;;;;;;;11.03;84.18;101403.34;4996328;28;20255;-76
2023/04/21 10:16:42;;;;;;;22.73;18.17;;;;;;;11.10;83.97;101402.22;4995829;28;20038;-77
2023/04/21 10:19:24;;;;;;;27.90;17.90;;;;;;;11.17;83.16;101393.25;4995038;28;20389;-77
2023/04/21 10:21:50;;;;;;;24.23;17.85;;;;;;;11.25;82.71;101396.44;4992979;28;20310;-77
2023/04/21 10:24:15;;;;;;;24.10;18.77;;;;;;;11.36;84.18;101392.59;4993053;28;20034;-76
2023/04/21 10:26:41;;;;;;;24.40;18.65;;;;;;;11.42;83.29;101387.97;4990440;28;20038;-76
2023/04/21 10:29:11;;;;;;;24.48;18.33;;;;;;;11.48;83.27;101384.31;4992025;28;20038;-76
2023/04/21 10:31:51;;;;;;;23.98;18.80;;;;;;;11.57;82.95;101372.59;4993783;28;20391;-77
2023/04/21 10:34:37;;;;;;;22.75;18.52;;;;;;;11.67;82.59;101377.47;4990294;28;20042;-76
2023/04/21 10:37:02;;;;;;;21.30;16.75;;;;;;;11.79;82.57;101373.53;4991633;28;20266;-76
2023/04/21 10:39:36;;;;;;;22.07;16.57;;;;;;;11.90;82.10;101365.31;4993695;28;20153;-77
2023/04/21 10:42:23;;;;;;;18.90;15.75;;;;;;;12.01;80.70;101362.28;4994050;28;20277;-77
2023/04/21 10:44:53;;;;;;;16.77;14.32;;;;;;;12.07;78.38;101360.25;4992356;28;20038;-76
2023/04/21 10:47:25;;;;;;;16.77;14.43;;;;;;;12.09;78.04;101354.94;4995350;28;20337;-76
2023/04/21 10:49:50;;;;;;;19.58;13.80;;;;;;;12.12;77.40;101349.59;4994165;28;20294;-77
2023/04/21 10:52:16;;;;;;;17.60;13.70;;;;;;;12.16;78.29;101350.31;4988152;28;20045;-77
2023/04/21 10:54:44;;;;;;;18.25;14.73;;;;;;;12.19;77.88;101355.47;4986202;28;20046;-77
2023/04/21 10:57:14;;;;;;;17.03;13.70;;;;;;;12.26;78.00;101351.66;4984921;28;20101;-77
2023/04/21 10:59:40;;;;;;;15.38;12.00;;;;;;;12.37;77.08;101348.59;4992836;28;20281;-76
2023/04/21 11:02:07;;;;;;;16.77;13.30;;;;;;;12.44;76.52;101350.06;4994857;28;20031;-76
2023/04/21 11:04:33;;;;;;;16.33;13.30;;;;;;;12.47;76.08;101345.53;4994976;28;20355;-77
2023/04/21 11:07:12;;;;;;;15.50;13.40;;;;;;;12.54;77.17;101333.03;4994633;28;20330;-77
2023/04/21 11:09:38;;;;;;;;;;;;;;;12.61;77.66;101339.72;4997449;28;20038;-77
2023/04/21 11:12:14;;;;;;;14.98;13.38;;;;;;;12.68;77.21;101329.84;4998228;28;19968;-76